sensor_id;sensor_type;location;lat;lon;timestamp;P1;durP1;ratioP1;P2;durP2;ratioP2
14847;SDS011;7516;43.570;1.448;2022-09-16T00:00:55;2.05;;;1.00;;
14847;SDS011;7516;43.570;1.448;2022-09-16T00:03:23;1.33;;;0.95;;
14847;SDS011;7516;43.570;1.448;2022-09-16T00:05:52;1.83;;;0.90;;
14847;SDS011;7516;43.570;1.448;2022-09-16T00:08:19;1.50;;;1.10;;
14847;SDS011;7516;43.570;1.448;2022-09-16T00:10:47;1.40;;;0.90;;
14847;SDS011;7516;43.570;1.448;2022-09-16T00:13:15;2.72;;;0.80;;
14847;SDS011;7516;43.570;1.448;2022-09-16T00:15:43;1.60;;;0.82;;
14847;SDS011;7516;43.570;1.448;2022-09-16T00:18:13;1.95;;;0.90;;
14847;SDS011;7516;43.570;1.448;2022-09-16T00:20:44;2.58;;;1.45;;
14847;SDS011;7516;43.570;1.448;2022-09-16T00:23:14;1.90;;;0.93;;
14847;SDS011;7516;43.570;1.448;2022-09-16T00:25:42;1.33;;;0.90;;
14847;SDS011;7516;43.570;1.448;2022-09-16T00:28:09;2.50;;;0.90;;
14847;SDS011;7516;43.570;1.448;2022-09-16T00:30:36;1.25;;;0.93;;
14847;SDS011;7516;43.570;1.448;2022-09-16T00:33:04;1.95;;;0.90;;
14847;SDS011;7516;43.570;1.448;2022-09-16T00:35:31;3.55;;;1.10;;
14847;SDS011;7516;43.570;1.448;2022-09-16T00:37:58;1.73;;;1.00;;
14847;SDS011;7516;43.570;1.448;2022-09-16T00:40:27;2.78;;;1.00;;
14847;SDS011;7516;43.570;1.448;2022-09-16T00:42:55;1.42;;;0.90;;
14847;SDS011;7516;43.570;1.448;2022-09-16T00:45:24;1.80;;;0.90;;
14847;SDS011;7516;43.570;1.448;2022-09-16T00:47:56;2.33;;;0.85;;
14847;SDS011;7516;43.570;1.448;2022-09-16T00:50:27;1.63;;;0.80;;
14847;SDS011;7516;43.570;1.448;2022-09-16T00:53:02;3.33;;;1.27;;
14847;SDS011;7516;43.570;1.448;2022-09-16T00:55:33;2.03;;;0.80;;
14847;SDS011;7516;43.570;1.448;2022-09-16T00:58:03;1.38;;;1.17;;
14847;SDS011;7516;43.570;1.448;2022-09-16T01:00:36;1.95;;;1.15;;
14847;SDS011;7516;43.570;1.448;2022-09-16T01:03:03;2.72;;;1.10;;
14847;SDS011;7516;43.570;1.448;2022-09-16T01:05:31;1.55;;;0.98;;
14847;SDS011;7516;43.570;1.448;2022-09-16T01:08:01;1.67;;;0.90;;
14847;SDS011;7516;43.570;1.448;2022-09-16T01:10:29;1.83;;;1.10;;
14847;SDS011;7516;43.570;1.448;2022-09-16T01:12:59;2.33;;;0.88;;
14847;SDS011;7516;43.570;1.448;2022-09-16T01:15:30;1.65;;;1.10;;
14847;SDS011;7516;43.570;1.448;2022-09-16T01:18:08;2.35;;;1.10;;
14847;SDS011;7516;43.570;1.448;2022-09-16T01:20:53;1.70;;;1.25;;
14847;SDS011;7516;43.570;1.448;2022-09-16T01:24:00;1.65;;;1.02;;
14847;SDS011;7516;43.570;1.448;2022-09-16T01:27:19;1.40;;;1.02;;
14847;SDS011;7516;43.570;1.448;2022-09-16T01:30:15;3.10;;;1.40;;
14847;SDS011;7516;43.570;1.448;2022-09-16T01:33:02;1.13;;;1.00;;
14847;SDS011;7516;43.570;1.448;2022-09-16T01:35:43;1.73;;;1.10;;
14847;SDS011;7516;43.570;1.448;2022-09-16T01:38:25;3.40;;;1.00;;
14847;SDS011;7516;43.570;1.448;2022-09-16T01:41:03;1.45;;;1.05;;
14847;SDS011;7516;43.570;1.448;2022-09-16T01:43:39;4.10;;;1.20;;
14847;SDS011;7516;43.570;1.448;2022-09-16T01:46:16;1.75;;;1.17;;
14847;SDS011;7516;43.570;1.448;2022-09-16T01:48:48;2.47;;;1.10;;
14847;SDS011;7516;43.570;1.448;2022-09-16T01:51:22;2.83;;;1.30;;
14847;SDS011;7516;43.570;1.448;2022-09-16T01:53:54;1.90;;;1.10;;
14847;SDS011;7516;43.570;1.448;2022-09-16T01:56:31;2.22;;;1.08;;
14847;SDS011;7516;43.570;1.448;2022-09-16T01:59:05;2.95;;;1.15;;
14847;SDS011;7516;43.570;1.448;2022-09-16T02:01:36;1.60;;;1.00;;
14847;SDS011;7516;43.570;1.448;2022-09-16T02:04:12;2.63;;;1.17;;
14847;SDS011;7516;43.570;1.448;2022-09-16T02:06:43;2.38;;;1.30;;
14847;SDS011;7516;43.570;1.448;2022-09-16T02:09:16;3.53;;;1.30;;
14847;SDS011;7516;43.570;1.448;2022-09-16T02:11:48;2.17;;;1.10;;
14847;SDS011;7516;43.570;1.448;2022-09-16T02:14:19;4.03;;;1.35;;
14847;SDS011;7516;43.570;1.448;2022-09-16T02:16:52;2.13;;;1.20;;
14847;SDS011;7516;43.570;1.448;2022-09-16T02:19:21;1.90;;;1.15;;
14847;SDS011;7516;43.570;1.448;2022-09-16T02:21:54;3.05;;;1.40;;
14847;SDS011;7516;43.570;1.448;2022-09-16T02:24:23;2.17;;;1.23;;
14847;SDS011;7516;43.570;1.448;2022-09-16T02:26:53;2.00;;;1.50;;
14847;SDS011;7516;43.570;1.448;2022-09-16T02:29:25;2.53;;;1.20;;
14847;SDS011;7516;43.570;1.448;2022-09-16T02:31:58;2.08;;;1.20;;
14847;SDS011;7516;43.570;1.448;2022-09-16T02:34:28;1.95;;;1.23;;
14847;SDS011;7516;43.570;1.448;2022-09-16T02:37:00;1.98;;;1.15;;
14847;SDS011;7516;43.570;1.448;2022-09-16T02:39:34;3.33;;;1.58;;
14847;SDS011;7516;43.570;1.448;2022-09-16T02:42:05;2.13;;;1.30;;
14847;SDS011;7516;43.570;1.448;2022-09-16T02:44:33;3.05;;;1.20;;
14847;SDS011;7516;43.570;1.448;2022-09-16T02:47:03;1.80;;;1.17;;
14847;SDS011;7516;43.570;1.448;2022-09-16T02:49:38;1.55;;;1.10;;
14847;SDS011;7516;43.570;1.448;2022-09-16T02:52:15;4.78;;;1.38;;
14847;SDS011;7516;43.570;1.448;2022-09-16T02:54:50;1.65;;;1.10;;
14847;SDS011;7516;43.570;1.448;2022-09-16T02:57:21;1.50;;;1.00;;
14847;SDS011;7516;43.570;1.448;2022-09-16T02:59:49;1.33;;;1.00;;
14847;SDS011;7516;43.570;1.448;2022-09-16T03:02:18;2.75;;;1.10;;
14847;SDS011;7516;43.570;1.448;2022-09-16T03:04:45;1.45;;;1.10;;
14847;SDS011;7516;43.570;1.448;2022-09-16T03:07:13;3.33;;;1.45;;
14847;SDS011;7516;43.570;1.448;2022-09-16T03:09:42;2.35;;;1.08;;
14847;SDS011;7516;43.570;1.448;2022-09-16T03:12:14;2.92;;;1.40;;
14847;SDS011;7516;43.570;1.448;2022-09-16T03:14:56;1.90;;;1.10;;
14847;SDS011;7516;43.570;1.448;2022-09-16T03:17:43;3.88;;;1.52;;
14847;SDS011;7516;43.570;1.448;2022-09-16T03:20:31;2.83;;;1.33;;
14847;SDS011;7516;43.570;1.448;2022-09-16T03:23:07;3.72;;;1.30;;
14847;SDS011;7516;43.570;1.448;2022-09-16T03:25:44;3.10;;;1.40;;
14847;SDS011;7516;43.570;1.448;2022-09-16T03:28:19;2.97;;;1.52;;
14847;SDS011;7516;43.570;1.448;2022-09-16T03:30:52;3.13;;;1.70;;
14847;SDS011;7516;43.570;1.448;2022-09-16T03:33:26;2.05;;;1.50;;
14847;SDS011;7516;43.570;1.448;2022-09-16T03:36:01;2.90;;;1.60;;
14847;SDS011;7516;43.570;1.448;2022-09-16T03:38:33;1.38;;;1.20;;
14847;SDS011;7516;43.570;1.448;2022-09-16T03:41:02;3.38;;;1.60;;
14847;SDS011;7516;43.570;1.448;2022-09-16T03:43:32;3.08;;;1.75;;
14847;SDS011;7516;43.570;1.448;2022-09-16T03:45:59;2.88;;;1.73;;
14847;SDS011;7516;43.570;1.448;2022-09-16T03:48:28;2.50;;;1.75;;
14847;SDS011;7516;43.570;1.448;2022-09-16T03:50:56;2.85;;;2.00;;
14847;SDS011;7516;43.570;1.448;2022-09-16T03:53:24;2.00;;;1.80;;
14847;SDS011;7516;43.570;1.448;2022-09-16T03:55:51;3.63;;;2.10;;
14847;SDS011;7516;43.570;1.448;2022-09-16T03:58:19;3.58;;;1.90;;
14847;SDS011;7516;43.570;1.448;2022-09-16T04:00:49;5.38;;;2.13;;
14847;SDS011;7516;43.570;1.448;2022-09-16T04:03:18;3.50;;;2.10;;
14847;SDS011;7516;43.570;1.448;2022-09-16T04:05:46;3.10;;;1.90;;
14847;SDS011;7516;43.570;1.448;2022-09-16T04:08:18;3.72;;;1.90;;
14847;SDS011;7516;43.570;1.448;2022-09-16T04:10:52;3.70;;;2.05;;
14847;SDS011;7516;43.570;1.448;2022-09-16T04:13:20;2.35;;;1.80;;
14847;SDS011;7516;43.570;1.448;2022-09-16T04:15:48;3.00;;;2.03;;
14847;SDS011;7516;43.570;1.448;2022-09-16T04:18:16;4.00;;;2.05;;
14847;SDS011;7516;43.570;1.448;2022-09-16T04:20:44;4.93;;;2.20;;
14847;SDS011;7516;43.570;1.448;2022-09-16T04:23:13;3.92;;;2.22;;
14847;SDS011;7516;43.570;1.448;2022-09-16T04:25:41;3.72;;;2.20;;
14847;SDS011;7516;43.570;1.448;2022-09-16T04:28:08;3.17;;;1.95;;
14847;SDS011;7516;43.570;1.448;2022-09-16T04:30:35;3.13;;;2.20;;
14847;SDS011;7516;43.570;1.448;2022-09-16T04:33:03;3.38;;;2.05;;
14847;SDS011;7516;43.570;1.448;2022-09-16T04:35:31;3.35;;;2.20;;
14847;SDS011;7516;43.570;1.448;2022-09-16T04:37:59;3.97;;;2.20;;
14847;SDS011;7516;43.570;1.448;2022-09-16T04:40:27;3.83;;;1.83;;
14847;SDS011;7516;43.570;1.448;2022-09-16T04:42:54;3.33;;;2.20;;
14847;SDS011;7516;43.570;1.448;2022-09-16T04:45:22;4.07;;;2.00;;
14847;SDS011;7516;43.570;1.448;2022-09-16T04:47:54;2.95;;;1.90;;
14847;SDS011;7516;43.570;1.448;2022-09-16T04:50:21;4.70;;;2.08;;
14847;SDS011;7516;43.570;1.448;2022-09-16T04:52:49;2.35;;;1.90;;
14847;SDS011;7516;43.570;1.448;2022-09-16T04:55:18;1.80;;;1.65;;
14847;SDS011;7516;43.570;1.448;2022-09-16T04:57:47;4.25;;;2.00;;
14847;SDS011;7516;43.570;1.448;2022-09-16T05:00:15;3.40;;;2.10;;
14847;SDS011;7516;43.570;1.448;2022-09-16T05:02:43;4.43;;;2.10;;
14847;SDS011;7516;43.570;1.448;2022-09-16T05:05:10;3.35;;;1.88;;
14847;SDS011;7516;43.570;1.448;2022-09-16T05:07:38;4.88;;;2.10;;
14847;SDS011;7516;43.570;1.448;2022-09-16T05:10:06;2.65;;;2.30;;
14847;SDS011;7516;43.570;1.448;2022-09-16T05:12:35;3.72;;;2.20;;
14847;SDS011;7516;43.570;1.448;2022-09-16T05:15:03;4.30;;;2.17;;
14847;SDS011;7516;43.570;1.448;2022-09-16T05:17:31;3.83;;;2.40;;
14847;SDS011;7516;43.570;1.448;2022-09-16T05:19:59;3.08;;;2.13;;
14847;SDS011;7516;43.570;1.448;2022-09-16T05:22:27;4.22;;;2.70;;
14847;SDS011;7516;43.570;1.448;2022-09-16T05:24:55;4.28;;;2.25;;
14847;SDS011;7516;43.570;1.448;2022-09-16T05:27:22;4.35;;;2.45;;
14847;SDS011;7516;43.570;1.448;2022-09-16T05:29:53;4.32;;;2.53;;
14847;SDS011;7516;43.570;1.448;2022-09-16T05:32:20;3.15;;;2.28;;
14847;SDS011;7516;43.570;1.448;2022-09-16T05:34:48;3.92;;;2.30;;
14847;SDS011;7516;43.570;1.448;2022-09-16T05:37:15;3.25;;;2.45;;
14847;SDS011;7516;43.570;1.448;2022-09-16T05:39:43;3.75;;;2.70;;
14847;SDS011;7516;43.570;1.448;2022-09-16T05:42:10;4.68;;;2.80;;
14847;SDS011;7516;43.570;1.448;2022-09-16T05:44:38;3.90;;;2.28;;
14847;SDS011;7516;43.570;1.448;2022-09-16T05:47:07;4.97;;;2.60;;
14847;SDS011;7516;43.570;1.448;2022-09-16T05:49:34;4.05;;;2.40;;
14847;SDS011;7516;43.570;1.448;2022-09-16T05:52:02;3.58;;;2.63;;
14847;SDS011;7516;43.570;1.448;2022-09-16T05:54:29;2.67;;;2.42;;
14847;SDS011;7516;43.570;1.448;2022-09-16T05:56:56;3.25;;;2.95;;
14847;SDS011;7516;43.570;1.448;2022-09-16T05:59:24;4.55;;;3.15;;
14847;SDS011;7516;43.570;1.448;2022-09-16T06:01:51;4.05;;;2.72;;
14847;SDS011;7516;43.570;1.448;2022-09-16T06:04:20;4.30;;;2.95;;
14847;SDS011;7516;43.570;1.448;2022-09-16T06:06:48;4.55;;;2.92;;
14847;SDS011;7516;43.570;1.448;2022-09-16T06:09:16;4.35;;;2.88;;
14847;SDS011;7516;43.570;1.448;2022-09-16T06:11:46;4.88;;;3.05;;
14847;SDS011;7516;43.570;1.448;2022-09-16T06:14:15;5.72;;;2.92;;
14847;SDS011;7516;43.570;1.448;2022-09-16T06:16:44;3.95;;;2.85;;
14847;SDS011;7516;43.570;1.448;2022-09-16T06:19:12;5.20;;;3.28;;
14847;SDS011;7516;43.570;1.448;2022-09-16T06:21:43;7.50;;;2.92;;
14847;SDS011;7516;43.570;1.448;2022-09-16T06:24:11;7.55;;;3.50;;
14847;SDS011;7516;43.570;1.448;2022-09-16T06:26:41;5.95;;;2.92;;
14847;SDS011;7516;43.570;1.448;2022-09-16T06:29:10;4.78;;;2.78;;
14847;SDS011;7516;43.570;1.448;2022-09-16T06:31:38;3.42;;;2.63;;
14847;SDS011;7516;43.570;1.448;2022-09-16T06:34:07;3.28;;;2.22;;
14847;SDS011;7516;43.570;1.448;2022-09-16T06:36:39;3.90;;;2.40;;
14847;SDS011;7516;43.570;1.448;2022-09-16T06:39:09;2.92;;;2.63;;
14847;SDS011;7516;43.570;1.448;2022-09-16T06:41:38;4.90;;;2.90;;
14847;SDS011;7516;43.570;1.448;2022-09-16T06:44:06;3.38;;;2.75;;
14847;SDS011;7516;43.570;1.448;2022-09-16T06:46:33;6.00;;;2.60;;
14847;SDS011;7516;43.570;1.448;2022-09-16T06:49:01;3.20;;;2.53;;
14847;SDS011;7516;43.570;1.448;2022-09-16T06:51:29;3.83;;;2.90;;
14847;SDS011;7516;43.570;1.448;2022-09-16T06:53:58;4.13;;;2.92;;
14847;SDS011;7516;43.570;1.448;2022-09-16T06:56:28;5.70;;;3.30;;
14847;SDS011;7516;43.570;1.448;2022-09-16T06:58:55;4.85;;;2.90;;
14847;SDS011;7516;43.570;1.448;2022-09-16T07:01:24;4.00;;;2.53;;
14847;SDS011;7516;43.570;1.448;2022-09-16T07:03:53;4.55;;;3.10;;
14847;SDS011;7516;43.570;1.448;2022-09-16T07:06:22;5.30;;;3.03;;
14847;SDS011;7516;43.570;1.448;2022-09-16T07:08:53;6.32;;;2.90;;
14847;SDS011;7516;43.570;1.448;2022-09-16T07:11:21;5.53;;;3.60;;
14847;SDS011;7516;43.570;1.448;2022-09-16T07:13:51;3.20;;;2.75;;
14847;SDS011;7516;43.570;1.448;2022-09-16T07:16:19;4.68;;;2.90;;
14847;SDS011;7516;43.570;1.448;2022-09-16T07:18:51;4.85;;;2.88;;
14847;SDS011;7516;43.570;1.448;2022-09-16T07:21:19;4.40;;;2.85;;
14847;SDS011;7516;43.570;1.448;2022-09-16T07:23:49;3.95;;;3.00;;
14847;SDS011;7516;43.570;1.448;2022-09-16T07:26:20;5.15;;;3.25;;
14847;SDS011;7516;43.570;1.448;2022-09-16T07:28:52;6.63;;;3.50;;
14847;SDS011;7516;43.570;1.448;2022-09-16T07:31:21;6.43;;;3.90;;
14847;SDS011;7516;43.570;1.448;2022-09-16T07:33:50;4.00;;;3.20;;
14847;SDS011;7516;43.570;1.448;2022-09-16T07:36:19;7.85;;;3.38;;
14847;SDS011;7516;43.570;1.448;2022-09-16T07:38:48;5.07;;;4.03;;
14847;SDS011;7516;43.570;1.448;2022-09-16T07:41:18;5.07;;;3.60;;
14847;SDS011;7516;43.570;1.448;2022-09-16T07:43:46;5.05;;;3.53;;
14847;SDS011;7516;43.570;1.448;2022-09-16T07:46:17;3.67;;;2.97;;
14847;SDS011;7516;43.570;1.448;2022-09-16T07:48:45;5.45;;;3.65;;
14847;SDS011;7516;43.570;1.448;2022-09-16T07:51:14;8.02;;;3.55;;
14847;SDS011;7516;43.570;1.448;2022-09-16T07:53:43;5.13;;;4.05;;
14847;SDS011;7516;43.570;1.448;2022-09-16T07:56:12;6.22;;;3.70;;
14847;SDS011;7516;43.570;1.448;2022-09-16T07:58:42;4.63;;;3.17;;
14847;SDS011;7516;43.570;1.448;2022-09-16T08:01:10;4.20;;;3.30;;
14847;SDS011;7516;43.570;1.448;2022-09-16T08:03:41;4.70;;;3.05;;
14847;SDS011;7516;43.570;1.448;2022-09-16T08:06:10;5.22;;;3.60;;
14847;SDS011;7516;43.570;1.448;2022-09-16T08:08:40;5.57;;;3.33;;
14847;SDS011;7516;43.570;1.448;2022-09-16T08:11:08;3.42;;;2.75;;
14847;SDS011;7516;43.570;1.448;2022-09-16T08:13:36;4.43;;;2.88;;
14847;SDS011;7516;43.570;1.448;2022-09-16T08:16:05;4.28;;;2.80;;
14847;SDS011;7516;43.570;1.448;2022-09-16T08:18:35;5.15;;;3.13;;
14847;SDS011;7516;43.570;1.448;2022-09-16T08:21:05;3.88;;;3.17;;
14847;SDS011;7516;43.570;1.448;2022-09-16T08:23:34;5.88;;;2.90;;
14847;SDS011;7516;43.570;1.448;2022-09-16T08:26:03;4.45;;;2.95;;
14847;SDS011;7516;43.570;1.448;2022-09-16T08:28:32;3.75;;;2.92;;
14847;SDS011;7516;43.570;1.448;2022-09-16T08:31:01;5.70;;;3.30;;
14847;SDS011;7516;43.570;1.448;2022-09-16T08:33:29;5.03;;;2.90;;
14847;SDS011;7516;43.570;1.448;2022-09-16T08:35:58;6.05;;;3.25;;
14847;SDS011;7516;43.570;1.448;2022-09-16T08:38:27;5.38;;;3.17;;
14847;SDS011;7516;43.570;1.448;2022-09-16T08:40:57;4.57;;;3.58;;
14847;SDS011;7516;43.570;1.448;2022-09-16T08:43:33;4.95;;;3.17;;
14847;SDS011;7516;43.570;1.448;2022-09-16T08:46:08;5.00;;;3.20;;
14847;SDS011;7516;43.570;1.448;2022-09-16T08:48:45;4.90;;;3.60;;
14847;SDS011;7516;43.570;1.448;2022-09-16T08:51:22;4.40;;;3.65;;
14847;SDS011;7516;43.570;1.448;2022-09-16T08:53:53;6.22;;;3.72;;
14847;SDS011;7516;43.570;1.448;2022-09-16T08:56:26;6.25;;;3.38;;
14847;SDS011;7516;43.570;1.448;2022-09-16T08:58:59;4.85;;;3.35;;
14847;SDS011;7516;43.570;1.448;2022-09-16T09:01:31;5.22;;;3.15;;
14847;SDS011;7516;43.570;1.448;2022-09-16T09:04:04;6.45;;;3.60;;
14847;SDS011;7516;43.570;1.448;2022-09-16T09:06:48;4.60;;;3.17;;
14847;SDS011;7516;43.570;1.448;2022-09-16T09:09:29;4.60;;;3.22;;
14847;SDS011;7516;43.570;1.448;2022-09-16T09:12:14;6.40;;;3.35;;
14847;SDS011;7516;43.570;1.448;2022-09-16T09:14:55;5.10;;;3.00;;
14847;SDS011;7516;43.570;1.448;2022-09-16T09:17:37;5.80;;;3.00;;
14847;SDS011;7516;43.570;1.448;2022-09-16T09:20:19;4.85;;;3.60;;
14847;SDS011;7516;43.570;1.448;2022-09-16T09:23:08;4.05;;;2.67;;
14847;SDS011;7516;43.570;1.448;2022-09-16T09:25:47;6.85;;;3.00;;
14847;SDS011;7516;43.570;1.448;2022-09-16T09:28:30;4.40;;;2.63;;
14847;SDS011;7516;43.570;1.448;2022-09-16T09:31:20;5.47;;;2.72;;
14847;SDS011;7516;43.570;1.448;2022-09-16T09:33:59;3.47;;;2.80;;
14847;SDS011;7516;43.570;1.448;2022-09-16T09:36:42;4.25;;;2.80;;
14847;SDS011;7516;43.570;1.448;2022-09-16T09:39:26;5.78;;;3.50;;
14847;SDS011;7516;43.570;1.448;2022-09-16T09:42:10;10.52;;;2.50;;
14847;SDS011;7516;43.570;1.448;2022-09-16T09:44:46;2.72;;;2.03;;
14847;SDS011;7516;43.570;1.448;2022-09-16T09:47:19;2.70;;;1.90;;
14847;SDS011;7516;43.570;1.448;2022-09-16T09:49:50;4.03;;;1.90;;
14847;SDS011;7516;43.570;1.448;2022-09-16T09:52:22;2.40;;;1.75;;
14847;SDS011;7516;43.570;1.448;2022-09-16T09:54:53;3.38;;;1.70;;
14847;SDS011;7516;43.570;1.448;2022-09-16T09:57:28;3.70;;;1.50;;
14847;SDS011;7516;43.570;1.448;2022-09-16T09:59:59;1.65;;;1.30;;
14847;SDS011;7516;43.570;1.448;2022-09-16T10:02:32;1.85;;;1.23;;
14847;SDS011;7516;43.570;1.448;2022-09-16T10:05:04;2.20;;;1.27;;
14847;SDS011;7516;43.570;1.448;2022-09-16T10:07:32;1.83;;;1.20;;
14847;SDS011;7516;43.570;1.448;2022-09-16T10:10:04;3.03;;;1.33;;
14847;SDS011;7516;43.570;1.448;2022-09-16T10:12:41;2.85;;;1.10;;
14847;SDS011;7516;43.570;1.448;2022-09-16T10:15:18;2.15;;;1.40;;
14847;SDS011;7516;43.570;1.448;2022-09-16T10:17:47;2.47;;;1.30;;
14847;SDS011;7516;43.570;1.448;2022-09-16T10:20:24;2.90;;;1.30;;
14847;SDS011;7516;43.570;1.448;2022-09-16T10:22:54;2.40;;;1.33;;
14847;SDS011;7516;43.570;1.448;2022-09-16T10:25:26;1.45;;;1.10;;
14847;SDS011;7516;43.570;1.448;2022-09-16T10:27:57;1.60;;;1.00;;
14847;SDS011;7516;43.570;1.448;2022-09-16T10:30:27;3.95;;;1.35;;
14847;SDS011;7516;43.570;1.448;2022-09-16T10:32:57;1.10;;;0.90;;
14847;SDS011;7516;43.570;1.448;2022-09-16T10:35:28;2.13;;;1.30;;
14847;SDS011;7516;43.570;1.448;2022-09-16T10:37:57;1.98;;;1.00;;
14847;SDS011;7516;43.570;1.448;2022-09-16T10:40:27;2.00;;;1.00;;
14847;SDS011;7516;43.570;1.448;2022-09-16T10:42:58;1.40;;;1.00;;
14847;SDS011;7516;43.570;1.448;2022-09-16T10:45:29;1.77;;;1.17;;
14847;SDS011;7516;43.570;1.448;2022-09-16T10:48:01;1.52;;;1.08;;
14847;SDS011;7516;43.570;1.448;2022-09-16T10:50:36;1.95;;;1.00;;
14847;SDS011;7516;43.570;1.448;2022-09-16T10:53:18;1.98;;;1.25;;
14847;SDS011;7516;43.570;1.448;2022-09-16T10:55:55;2.90;;;1.10;;
14847;SDS011;7516;43.570;1.448;2022-09-16T10:58:25;1.55;;;0.90;;
14847;SDS011;7516;43.570;1.448;2022-09-16T11:00:56;2.42;;;1.15;;
14847;SDS011;7516;43.570;1.448;2022-09-16T11:03:47;2.42;;;1.10;;
14847;SDS011;7516;43.570;1.448;2022-09-16T11:06:38;4.28;;;1.40;;
14847;SDS011;7516;43.570;1.448;2022-09-16T11:09:18;2.13;;;1.20;;
14847;SDS011;7516;43.570;1.448;2022-09-16T11:14:51;3.25;;;1.20;;
14847;SDS011;7516;43.570;1.448;2022-09-16T11:17:33;2.47;;;1.05;;
14847;SDS011;7516;43.570;1.448;2022-09-16T11:20:25;2.33;;;1.20;;
14847;SDS011;7516;43.570;1.448;2022-09-16T11:23:06;1.52;;;1.10;;
14847;SDS011;7516;43.570;1.448;2022-09-16T11:25:43;3.22;;;1.27;;
14847;SDS011;7516;43.570;1.448;2022-09-16T11:28:27;3.40;;;1.23;;
14847;SDS011;7516;43.570;1.448;2022-09-16T11:31:15;1.92;;;1.20;;
14847;SDS011;7516;43.570;1.448;2022-09-16T11:33:54;2.10;;;1.00;;
14847;SDS011;7516;43.570;1.448;2022-09-16T11:36:33;1.27;;;0.98;;
14847;SDS011;7516;43.570;1.448;2022-09-16T11:39:16;1.88;;;1.05;;
14847;SDS011;7516;43.570;1.448;2022-09-16T11:42:07;3.22;;;1.20;;
14847;SDS011;7516;43.570;1.448;2022-09-16T11:44:43;1.33;;;1.10;;
14847;SDS011;7516;43.570;1.448;2022-09-16T11:47:24;3.42;;;1.00;;
14847;SDS011;7516;43.570;1.448;2022-09-16T11:50:07;1.17;;;0.82;;
14847;SDS011;7516;43.570;1.448;2022-09-16T11:53:04;2.50;;;1.23;;
14847;SDS011;7516;43.570;1.448;2022-09-16T11:55:54;3.45;;;1.25;;
14847;SDS011;7516;43.570;1.448;2022-09-16T11:58:29;1.23;;;1.00;;
14847;SDS011;7516;43.570;1.448;2022-09-16T12:01:02;1.42;;;1.08;;
14847;SDS011;7516;43.570;1.448;2022-09-16T12:03:44;1.65;;;1.40;;
14847;SDS011;7516;43.570;1.448;2022-09-16T12:06:17;1.70;;;1.10;;
14847;SDS011;7516;43.570;1.448;2022-09-16T12:08:49;1.73;;;1.10;;
14847;SDS011;7516;43.570;1.448;2022-09-16T12:11:25;2.05;;;1.00;;
14847;SDS011;7516;43.570;1.448;2022-09-16T12:13:59;1.92;;;1.20;;
14847;SDS011;7516;43.570;1.448;2022-09-16T12:16:37;1.88;;;1.10;;
14847;SDS011;7516;43.570;1.448;2022-09-16T12:19:12;3.05;;;1.15;;
14847;SDS011;7516;43.570;1.448;2022-09-16T12:21:46;4.15;;;1.42;;
14847;SDS011;7516;43.570;1.448;2022-09-16T12:24:18;3.08;;;1.40;;
14847;SDS011;7516;43.570;1.448;2022-09-16T12:26:50;2.05;;;1.50;;
14847;SDS011;7516;43.570;1.448;2022-09-16T12:29:25;2.95;;;1.10;;
14847;SDS011;7516;43.570;1.448;2022-09-16T12:31:59;5.10;;;1.35;;
14847;SDS011;7516;43.570;1.448;2022-09-16T12:34:32;3.38;;;1.08;;
14847;SDS011;7516;43.570;1.448;2022-09-16T12:37:05;2.95;;;1.65;;
14847;SDS011;7516;43.570;1.448;2022-09-16T12:39:38;4.60;;;1.40;;
14847;SDS011;7516;43.570;1.448;2022-09-16T12:42:12;4.72;;;1.50;;
14847;SDS011;7516;43.570;1.448;2022-09-16T12:51:06;2.33;;;1.40;;
14847;SDS011;7516;43.570;1.448;2022-09-16T12:59:41;3.60;;;1.70;;
14847;SDS011;7516;43.570;1.448;2022-09-16T13:02:24;3.47;;;1.73;;
14847;SDS011;7516;43.570;1.448;2022-09-16T13:04:56;2.55;;;1.60;;
14847;SDS011;7516;43.570;1.448;2022-09-16T13:07:31;1.92;;;1.50;;
14847;SDS011;7516;43.570;1.448;2022-09-16T13:10:02;3.20;;;1.60;;
14847;SDS011;7516;43.570;1.448;2022-09-16T13:12:32;3.63;;;1.90;;
14847;SDS011;7516;43.570;1.448;2022-09-16T13:15:01;2.92;;;1.90;;
14847;SDS011;7516;43.570;1.448;2022-09-16T13:17:32;3.58;;;1.98;;
14847;SDS011;7516;43.570;1.448;2022-09-16T13:20:04;3.58;;;1.70;;
14847;SDS011;7516;43.570;1.448;2022-09-16T13:22:43;2.20;;;1.83;;
14847;SDS011;7516;43.570;1.448;2022-09-16T13:25:18;4.97;;;2.17;;
14847;SDS011;7516;43.570;1.448;2022-09-16T13:27:53;3.28;;;2.05;;
14847;SDS011;7516;43.570;1.448;2022-09-16T13:30:27;3.22;;;2.10;;
14847;SDS011;7516;43.570;1.448;2022-09-16T13:36:03;3.92;;;2.17;;
14847;SDS011;7516;43.570;1.448;2022-09-16T13:38:44;3.85;;;2.15;;
14847;SDS011;7516;43.570;1.448;2022-09-16T13:41:13;3.20;;;2.13;;
14847;SDS011;7516;43.570;1.448;2022-09-16T13:43:56;4.32;;;2.35;;
14847;SDS011;7516;43.570;1.448;2022-09-16T13:46:34;4.07;;;2.25;;
14847;SDS011;7516;43.570;1.448;2022-09-16T13:49:04;3.78;;;2.05;;
14847;SDS011;7516;43.570;1.448;2022-09-16T13:51:41;4.80;;;2.20;;
14847;SDS011;7516;43.570;1.448;2022-09-16T13:54:18;3.83;;;2.60;;
14847;SDS011;7516;43.570;1.448;2022-09-16T13:59:57;3.65;;;2.20;;
14847;SDS011;7516;43.570;1.448;2022-09-16T14:02:52;3.30;;;2.45;;
14847;SDS011;7516;43.570;1.448;2022-09-16T14:05:34;3.60;;;2.50;;
14847;SDS011;7516;43.570;1.448;2022-09-16T14:08:15;5.47;;;2.90;;
14847;SDS011;7516;43.570;1.448;2022-09-16T14:10:51;7.00;;;3.13;;
14847;SDS011;7516;43.570;1.448;2022-09-16T14:13:23;4.50;;;2.92;;
14847;SDS011;7516;43.570;1.448;2022-09-16T14:15:57;3.75;;;2.95;;
14847;SDS011;7516;43.570;1.448;2022-09-16T14:18:25;4.13;;;2.67;;
14847;SDS011;7516;43.570;1.448;2022-09-16T14:20:58;4.43;;;3.08;;
14847;SDS011;7516;43.570;1.448;2022-09-16T14:23:27;4.60;;;2.45;;
14847;SDS011;7516;43.570;1.448;2022-09-16T14:25:56;3.30;;;2.60;;
14847;SDS011;7516;43.570;1.448;2022-09-16T14:28:34;3.75;;;2.58;;
14847;SDS011;7516;43.570;1.448;2022-09-16T14:31:06;2.92;;;2.63;;
14847;SDS011;7516;43.570;1.448;2022-09-16T14:33:39;4.15;;;2.60;;
14847;SDS011;7516;43.570;1.448;2022-09-16T14:36:10;3.65;;;2.40;;
14847;SDS011;7516;43.570;1.448;2022-09-16T14:38:43;4.03;;;2.42;;
14847;SDS011;7516;43.570;1.448;2022-09-16T14:43:50;3.45;;;2.92;;
14847;SDS011;7516;43.570;1.448;2022-09-16T14:46:19;3.15;;;2.35;;
14847;SDS011;7516;43.570;1.448;2022-09-16T14:48:47;2.90;;;2.60;;
14847;SDS011;7516;43.570;1.448;2022-09-16T14:51:17;3.45;;;2.80;;
14847;SDS011;7516;43.570;1.448;2022-09-16T14:53:54;3.10;;;2.78;;
14847;SDS011;7516;43.570;1.448;2022-09-16T14:56:24;4.45;;;2.53;;
14847;SDS011;7516;43.570;1.448;2022-09-16T14:58:52;3.28;;;2.60;;
14847;SDS011;7516;43.570;1.448;2022-09-16T15:01:23;3.78;;;2.83;;
14847;SDS011;7516;43.570;1.448;2022-09-16T15:03:53;4.05;;;2.58;;
14847;SDS011;7516;43.570;1.448;2022-09-16T15:06:26;4.70;;;2.90;;
14847;SDS011;7516;43.570;1.448;2022-09-16T15:08:57;3.97;;;3.03;;
14847;SDS011;7516;43.570;1.448;2022-09-16T15:11:29;3.75;;;3.28;;
14847;SDS011;7516;43.570;1.448;2022-09-16T15:14:00;3.85;;;2.88;;
14847;SDS011;7516;43.570;1.448;2022-09-16T15:16:31;4.45;;;2.97;;
14847;SDS011;7516;43.570;1.448;2022-09-16T15:19:00;4.20;;;2.83;;
14847;SDS011;7516;43.570;1.448;2022-09-16T15:21:29;4.43;;;3.20;;
14847;SDS011;7516;43.570;1.448;2022-09-16T15:24:01;4.85;;;3.13;;
14847;SDS011;7516;43.570;1.448;2022-09-16T15:26:37;4.40;;;3.30;;
14847;SDS011;7516;43.570;1.448;2022-09-16T15:29:12;5.40;;;2.67;;
14847;SDS011;7516;43.570;1.448;2022-09-16T15:31:52;6.25;;;3.40;;
14847;SDS011;7516;43.570;1.448;2022-09-16T15:34:20;3.45;;;3.15;;
14847;SDS011;7516;43.570;1.448;2022-09-16T15:36:49;4.93;;;3.08;;
14847;SDS011;7516;43.570;1.448;2022-09-16T15:39:22;3.30;;;2.88;;
14847;SDS011;7516;43.570;1.448;2022-09-16T15:42:02;3.38;;;2.85;;
14847;SDS011;7516;43.570;1.448;2022-09-16T15:44:38;3.53;;;3.22;;
14847;SDS011;7516;43.570;1.448;2022-09-16T15:47:14;4.32;;;2.92;;
14847;SDS011;7516;43.570;1.448;2022-09-16T15:49:45;4.47;;;3.30;;
14847;SDS011;7516;43.570;1.448;2022-09-16T15:52:15;8.23;;;2.72;;
14847;SDS011;7516;43.570;1.448;2022-09-16T15:54:45;6.18;;;2.83;;
14847;SDS011;7516;43.570;1.448;2022-09-16T15:57:21;4.78;;;3.03;;